createdAt,value
2022-10-12T05:05:03.966Z,76.90
2022-10-12T05:10:08.951Z,77.00
2022-10-12T05:15:12.784Z,77.10
2022-10-12T05:20:17.940Z,77.00
2022-10-12T05:25:21.563Z,77.20
2022-10-12T05:30:25.683Z,77.10
2022-10-12T05:35:30.640Z,77.60
2022-10-12T05:40:34.291Z,77.60
2022-10-12T05:45:37.881Z,77.30
2022-10-12T05:50:42.864Z,77.30
2022-10-12T05:55:54.003Z,77.40
2022-10-12T06:01:05.972Z,77.40
2022-10-12T06:06:11.445Z,77.90
2022-10-12T06:11:15.164Z,77.40
2022-10-12T06:16:19.017Z,77.40
2022-10-12T06:21:39.477Z,77.40
2022-10-12T06:26:43.076Z,77.50
2022-10-12T06:31:51.423Z,77.70
2022-10-12T06:37:01.544Z,77.70
2022-10-12T06:42:05.620Z,77.40
2022-10-12T06:47:09.202Z,77.80
2022-10-12T06:52:14.201Z,77.90
2022-10-12T06:57:17.811Z,77.80
2022-10-12T07:02:21.417Z,77.90
2022-10-12T07:07:31.127Z,77.90
2022-10-12T07:12:36.506Z,78.00
2022-10-12T07:17:40.569Z,77.90
2022-10-12T07:22:45.636Z,78.00
2022-10-12T07:27:49.510Z,77.90
2022-10-12T07:32:55.429Z,77.60
2022-10-12T07:38:00.456Z,77.80
2022-10-12T07:43:15.720Z,77.90
2022-10-12T07:48:20.230Z,77.50
2022-10-12T07:53:25.181Z,77.60
2022-10-12T07:58:28.810Z,78.00
2022-10-12T08:03:32.540Z,77.30
2022-10-12T08:08:37.984Z,77.20
2022-10-12T08:13:42.206Z,77.50
2022-10-12T08:18:46.559Z,77.50
2022-10-12T08:23:51.774Z,77.50
2022-10-12T08:28:55.617Z,77.10
2022-10-12T08:33:59.634Z,76.90
2022-10-12T08:39:06.912Z,77.00
2022-10-12T08:44:31.722Z,76.90
2022-10-12T08:49:36.366Z,76.50
2022-10-12T08:54:43.025Z,75.90
2022-10-12T08:59:47.482Z,74.80
2022-10-12T09:04:57.993Z,73.10
2022-10-12T09:10:16.278Z,72.00
2022-10-12T09:15:23.714Z,70.80
2022-10-12T09:20:30.813Z,69.30
2022-10-12T09:25:36.057Z,68.40
2022-10-12T09:30:45.452Z,68.10
2022-10-12T09:35:51.075Z,67.20
2022-10-12T09:40:56.079Z,66.50
2022-10-12T09:46:06.235Z,65.30
2022-10-12T09:51:13.964Z,64.30
2022-10-12T09:56:29.699Z,64.00
2022-10-12T10:01:35.218Z,63.20
2022-10-12T10:06:40.450Z,62.10
2022-10-12T10:11:45.556Z,61.20
2022-10-12T10:16:51.634Z,60.20
2022-10-12T10:21:56.456Z,59.20
2022-10-12T10:27:03.400Z,58.80
2022-10-12T10:32:24.138Z,58.40
2022-10-12T10:37:27.946Z,58.60
2022-10-12T10:42:34.927Z,59.00
2022-10-12T10:47:46.645Z,59.30
2022-10-12T10:52:56.801Z,59.40
2022-10-12T10:58:05.757Z,60.10
2022-10-12T11:08:32.128Z,61.50
2022-10-12T11:13:41.594Z,62.30
2022-10-12T11:18:49.508Z,63.20
2022-10-12T11:23:57.440Z,63.40
2022-10-12T11:29:02.728Z,63.20
2022-10-12T11:34:13.284Z,62.90
2022-10-12T11:39:22.855Z,62.00
2022-10-12T11:44:36.883Z,61.60
2022-10-12T11:49:54.292Z,61.70
2022-10-12T11:55:13.142Z,60.70
2022-10-12T12:00:23.992Z,59.60
2022-10-12T12:05:33.008Z,58.10
2022-10-12T12:11:05.443Z,57.80
2022-10-12T12:16:43.382Z,58.50
2022-10-12T12:22:28.832Z,58.20
2022-10-12T12:27:36.149Z,57.50
2022-10-12T12:32:47.250Z,56.90
2022-10-12T12:38:01.281Z,56.50
2022-10-12T12:43:37.200Z,56.10
2022-10-12T12:49:01.764Z,55.20
2022-10-12T12:54:06.131Z,54.80
2022-10-12T12:59:39.081Z,54.50
2022-10-12T13:05:04.335Z,53.50
2022-10-12T13:10:22.766Z,53.00
2022-10-12T13:15:37.973Z,53.80
2022-10-12T13:20:46.717Z,53.70
2022-10-12T13:25:56.962Z,54.00
2022-10-12T13:31:03.728Z,54.40
2022-10-12T13:36:13.308Z,54.90
2022-10-12T13:41:20.198Z,55.10
2022-10-12T13:46:41.577Z,55.00
2022-10-12T13:51:49.325Z,54.50
2022-10-12T13:56:58.634Z,54.40
2022-10-12T14:02:04.230Z,54.30
2022-10-12T14:07:18.953Z,54.00
2022-10-12T14:12:25.478Z,53.70
2022-10-12T14:17:29.530Z,53.60
2022-10-12T14:22:34.899Z,53.60
2022-10-12T14:27:40.535Z,54.00
2022-10-12T14:32:45.245Z,54.30
2022-10-12T14:37:51.845Z,54.60
2022-10-12T14:42:59.065Z,55.10
2022-10-12T14:48:04.963Z,55.30
2022-10-12T14:53:13.581Z,55.60
2022-10-12T14:58:18.123Z,55.80
2022-10-12T15:03:21.924Z,56.00
2022-10-12T15:08:27.051Z,56.00
2022-10-12T15:13:30.650Z,56.20
2022-10-12T15:18:34.398Z,56.60
2022-10-12T15:23:39.413Z,56.90
2022-10-12T15:28:43.294Z,57.00
2022-10-12T15:33:47.023Z,57.10
2022-10-12T15:38:52.155Z,57.40
2022-10-12T15:43:55.789Z,57.50
2022-10-12T15:48:59.468Z,57.60
2022-10-12T15:54:04.550Z,57.70
2022-10-12T15:59:08.354Z,57.80
2022-10-12T16:04:16.094Z,57.90
2022-10-12T16:09:21.217Z,58.10
2022-10-12T16:14:24.873Z,58.60
2022-10-12T16:19:28.606Z,59.20
2022-10-12T16:24:33.604Z,59.20
2022-10-12T16:29:37.359Z,59.40
2022-10-12T16:34:41.028Z,59.60
2022-10-12T16:39:46.026Z,59.80
2022-10-12T16:44:49.893Z,60.00
2022-10-12T16:49:53.941Z,60.10
2022-10-12T16:54:58.898Z,60.40
2022-10-12T17:00:02.742Z,60.60
2022-10-12T17:05:07.295Z,60.80
2022-10-12T17:10:12.607Z,61.00
2022-10-12T17:15:16.302Z,61.30
2022-10-12T17:20:19.899Z,61.40
2022-10-12T17:25:24.900Z,61.60
2022-10-12T17:30:28.539Z,61.70
2022-10-12T17:35:32.193Z,62.20
2022-10-12T17:40:39.905Z,62.60
2022-10-12T17:45:43.471Z,63.00
2022-10-12T17:50:47.100Z,63.30
2022-10-12T17:55:58.819Z,63.60
2022-10-12T18:01:05.307Z,63.70
2022-10-12T18:06:11.222Z,64.10
2022-10-12T18:11:17.661Z,64.50
2022-10-12T18:16:22.825Z,64.90
2022-10-12T18:21:28.307Z,65.10
2022-10-12T18:26:33.686Z,65.30
2022-10-12T18:31:37.323Z,65.50
2022-10-12T18:36:42.878Z,65.70
2022-10-12T18:41:51.589Z,65.80
2022-10-12T18:46:55.620Z,66.10
2022-10-12T18:51:59.241Z,66.30
2022-10-12T18:57:04.295Z,66.60
2022-10-12T19:02:08.142Z,66.70
2022-10-12T19:07:11.750Z,66.90
2022-10-12T19:12:19.461Z,67.10
2022-10-12T19:17:23.379Z,67.20
2022-10-12T19:22:27.017Z,67.20
2022-10-12T19:27:32.042Z,67.30
2022-10-12T19:32:35.711Z,67.40
2022-10-12T19:37:39.504Z,67.60
2022-10-12T19:42:44.464Z,67.80
2022-10-12T19:47:48.109Z,68.30
2022-10-12T19:52:51.735Z,68.90
2022-10-12T19:57:56.757Z,69.10
2022-10-12T20:03:00.406Z,69.20
2022-10-12T20:08:04.013Z,69.30
2022-10-12T20:13:08.980Z,69.40
2022-10-12T20:18:12.569Z,69.50
2022-10-12T20:23:17.219Z,69.50
2022-10-12T20:28:22.553Z,69.60
2022-10-12T20:33:26.209Z,69.60
2022-10-12T20:38:30.086Z,69.40
2022-10-12T20:43:35.127Z,69.60
2022-10-12T20:48:40.071Z,69.70
2022-10-12T20:53:43.651Z,69.70
2022-10-12T20:58:48.871Z,69.60
2022-10-12T21:03:53.358Z,69.70
2022-10-12T21:08:58.424Z,69.80
2022-10-12T21:14:03.379Z,70.20
2022-10-12T21:19:07.030Z,70.40
2022-10-12T21:24:11.504Z,70.30
2022-10-12T21:29:16.486Z,70.40
2022-10-12T21:34:20.313Z,70.60
2022-10-12T21:39:23.939Z,71.10
2022-10-12T21:44:28.927Z,71.30
2022-10-12T21:49:32.512Z,71.50
2022-10-12T21:54:36.086Z,71.60
2022-10-12T21:59:41.028Z,71.90
2022-10-12T22:04:44.686Z,71.90
2022-10-12T22:09:49.445Z,72.00
2022-10-12T22:14:54.391Z,72.10
2022-10-12T22:20:00.231Z,72.30
2022-10-12T22:25:04.740Z,72.50
